sensor_id;sensor_type;location;lat;lon;timestamp;pressure;altitude;pressure_sealevel;temperature;humidity
10079;BME280;5078;42.544;22.966;2023-05-23T00:01:23;93734.00;;;12.74;100.00
10079;BME280;5078;42.544;22.966;2023-05-23T00:03:50;93733.69;;;12.84;100.00
10079;BME280;5078;42.544;22.966;2023-05-23T00:06:20;93726.63;;;12.98;100.00
10079;BME280;5078;42.544;22.966;2023-05-23T00:08:46;93723.22;;;12.83;100.00
10079;BME280;5078;42.544;22.966;2023-05-23T00:11:13;93729.97;;;12.57;100.00
10079;BME280;5078;42.544;22.966;2023-05-23T00:13:41;93726.31;;;12.58;100.00
10079;BME280;5078;42.544;22.966;2023-05-23T00:16:11;93723.66;;;12.37;100.00
10079;BME280;5078;42.544;22.966;2023-05-23T00:18:38;93721.34;;;12.55;100.00
10079;BME280;5078;42.544;22.966;2023-05-23T00:21:07;93719.19;;;12.65;100.00
10079;BME280;5078;42.544;22.966;2023-05-23T00:23:34;93720.72;;;12.74;100.00
10079;BME280;5078;42.544;22.966;2023-05-23T00:26:01;93718.78;;;12.90;100.00
10079;BME280;5078;42.544;22.966;2023-05-23T00:28:28;93719.97;;;12.81;100.00
10079;BME280;5078;42.544;22.966;2023-05-23T00:30:56;93715.78;;;12.71;100.00
10079;BME280;5078;42.544;22.966;2023-05-23T00:33:22;93715.00;;;12.78;100.00
10079;BME280;5078;42.544;22.966;2023-05-23T00:35:49;93717.06;;;12.76;100.00
10079;BME280;5078;42.544;22.966;2023-05-23T00:38:16;93718.38;;;12.65;100.00
10079;BME280;5078;42.544;22.966;2023-05-23T00:40:43;93688.28;;;12.15;100.00
10079;BME280;5078;42.544;22.966;2023-05-23T00:43:10;93716.44;;;12.09;100.00
10079;BME280;5078;42.544;22.966;2023-05-23T00:45:37;93728.38;;;12.20;100.00
10079;BME280;5078;42.544;22.966;2023-05-23T00:48:06;93719.09;;;12.09;100.00
10079;BME280;5078;42.544;22.966;2023-05-23T00:50:33;93720.09;;;12.08;100.00
10079;BME280;5078;42.544;22.966;2023-05-23T00:53:00;93711.00;;;11.96;100.00
10079;BME280;5078;42.544;22.966;2023-05-23T00:55:28;93718.69;;;11.76;100.00
10079;BME280;5078;42.544;22.966;2023-05-23T00:57:55;93723.19;;;11.60;100.00
10079;BME280;5078;42.544;22.966;2023-05-23T01:00:23;93719.97;;;11.65;100.00
10079;BME280;5078;42.544;22.966;2023-05-23T01:02:50;93727.78;;;11.52;100.00
10079;BME280;5078;42.544;22.966;2023-05-23T01:05:19;93718.91;;;11.44;100.00
10079;BME280;5078;42.544;22.966;2023-05-23T01:07:49;93725.59;;;11.40;100.00
10079;BME280;5078;42.544;22.966;2023-05-23T01:10:18;93724.88;;;11.32;100.00
10079;BME280;5078;42.544;22.966;2023-05-23T01:12:57;93720.84;;;11.51;100.00
10079;BME280;5078;42.544;22.966;2023-05-23T01:15:32;93723.84;;;11.48;100.00
10079;BME280;5078;42.544;22.966;2023-05-23T01:18:06;93709.88;;;11.39;100.00
10079;BME280;5078;42.544;22.966;2023-05-23T01:20:39;93722.47;;;11.52;100.00
10079;BME280;5078;42.544;22.966;2023-05-23T01:23:17;93722.22;;;11.47;100.00
10079;BME280;5078;42.544;22.966;2023-05-23T01:26:03;93728.31;;;11.62;100.00
10079;BME280;5078;42.544;22.966;2023-05-23T01:28:40;93728.59;;;11.67;100.00
10079;BME280;5078;42.544;22.966;2023-05-23T01:31:09;93733.34;;;11.72;100.00
10079;BME280;5078;42.544;22.966;2023-05-23T01:33:39;93734.56;;;11.25;100.00
10079;BME280;5078;42.544;22.966;2023-05-23T01:36:07;93733.22;;;11.43;100.00
10079;BME280;5078;42.544;22.966;2023-05-23T01:38:34;93730.72;;;11.12;100.00
10079;BME280;5078;42.544;22.966;2023-05-23T01:41:01;93716.38;;;11.36;100.00
10079;BME280;5078;42.544;22.966;2023-05-23T01:43:27;93722.66;;;11.35;100.00
10079;BME280;5078;42.544;22.966;2023-05-23T01:45:56;93718.00;;;11.37;100.00
10079;BME280;5078;42.544;22.966;2023-05-23T01:48:25;93719.09;;;11.28;100.00
10079;BME280;5078;42.544;22.966;2023-05-23T01:50:53;93715.72;;;11.05;100.00
10079;BME280;5078;42.544;22.966;2023-05-23T01:53:22;93713.59;;;10.85;100.00
10079;BME280;5078;42.544;22.966;2023-05-23T01:55:50;93712.13;;;10.97;100.00
10079;BME280;5078;42.544;22.966;2023-05-23T01:58:17;93713.97;;;11.12;100.00
10079;BME280;5078;42.544;22.966;2023-05-23T02:00:44;93706.84;;;11.27;100.00
10079;BME280;5078;42.544;22.966;2023-05-23T02:03:13;93711.69;;;10.94;100.00
10079;BME280;5078;42.544;22.966;2023-05-23T02:05:40;93712.41;;;11.02;100.00
10079;BME280;5078;42.544;22.966;2023-05-23T02:08:07;93716.09;;;11.01;100.00
10079;BME280;5078;42.544;22.966;2023-05-23T02:10:33;93707.47;;;10.85;100.00
10079;BME280;5078;42.544;22.966;2023-05-23T02:13:00;93715.53;;;11.06;100.00
10079;BME280;5078;42.544;22.966;2023-05-23T02:15:27;93721.66;;;11.07;100.00
10079;BME280;5078;42.544;22.966;2023-05-23T02:17:53;93686.69;;;10.88;100.00
10079;BME280;5078;42.544;22.966;2023-05-23T02:20:21;93711.59;;;11.02;100.00
10079;BME280;5078;42.544;22.966;2023-05-23T02:22:48;93699.25;;;11.09;100.00
10079;BME280;5078;42.544;22.966;2023-05-23T02:25:15;93702.44;;;11.05;100.00
10079;BME280;5078;42.544;22.966;2023-05-23T02:27:41;93714.34;;;11.23;100.00
10079;BME280;5078;42.544;22.966;2023-05-23T02:30:09;93713.44;;;11.31;100.00
10079;BME280;5078;42.544;22.966;2023-05-23T02:32:36;93724.78;;;11.25;100.00
10079;BME280;5078;42.544;22.966;2023-05-23T02:35:03;93710.25;;;11.36;100.00
10079;BME280;5078;42.544;22.966;2023-05-23T02:37:32;93688.53;;;11.17;100.00
10079;BME280;5078;42.544;22.966;2023-05-23T02:39:58;93710.13;;;11.29;100.00
10079;BME280;5078;42.544;22.966;2023-05-23T02:42:25;93711.88;;;11.37;100.00
10079;BME280;5078;42.544;22.966;2023-05-23T02:44:52;93710.97;;;11.30;100.00
10079;BME280;5078;42.544;22.966;2023-05-23T02:47:19;93711.50;;;10.95;100.00
10079;BME280;5078;42.544;22.966;2023-05-23T02:49:45;93718.28;;;11.13;100.00
10079;BME280;5078;42.544;22.966;2023-05-23T02:52:12;93702.31;;;10.83;100.00
10079;BME280;5078;42.544;22.966;2023-05-23T02:54:41;93711.22;;;10.90;100.00
10079;BME280;5078;42.544;22.966;2023-05-23T02:57:07;93712.94;;;10.98;100.00
10079;BME280;5078;42.544;22.966;2023-05-23T02:59:34;93701.22;;;10.77;100.00
10079;BME280;5078;42.544;22.966;2023-05-23T03:02:01;93714.50;;;10.92;100.00
10079;BME280;5078;42.544;22.966;2023-05-23T03:04:28;93717.28;;;10.46;100.00
10079;BME280;5078;42.544;22.966;2023-05-23T03:06:54;93720.38;;;10.50;100.00
10079;BME280;5078;42.544;22.966;2023-05-23T03:09:23;93718.13;;;10.62;100.00
10079;BME280;5078;42.544;22.966;2023-05-23T03:11:52;93722.63;;;10.38;100.00
10079;BME280;5078;42.544;22.966;2023-05-23T03:14:18;93724.16;;;10.32;100.00
10079;BME280;5078;42.544;22.966;2023-05-23T03:16:45;93728.75;;;10.39;100.00
10079;BME280;5078;42.544;22.966;2023-05-23T03:19:12;93722.28;;;10.41;100.00
10079;BME280;5078;42.544;22.966;2023-05-23T03:21:39;93725.75;;;10.42;100.00
10079;BME280;5078;42.544;22.966;2023-05-23T03:24:06;93723.03;;;10.50;100.00
10079;BME280;5078;42.544;22.966;2023-05-23T03:26:32;93724.41;;;10.61;100.00
10079;BME280;5078;42.544;22.966;2023-05-23T03:29:00;93733.56;;;10.58;100.00
10079;BME280;5078;42.544;22.966;2023-05-23T03:31:27;93725.44;;;10.60;100.00
10079;BME280;5078;42.544;22.966;2023-05-23T03:33:54;93719.06;;;10.69;100.00
10079;BME280;5078;42.544;22.966;2023-05-23T03:36:20;93711.19;;;10.75;100.00
10079;BME280;5078;42.544;22.966;2023-05-23T03:38:50;93722.31;;;10.94;100.00
10079;BME280;5078;42.544;22.966;2023-05-23T03:41:17;93725.56;;;10.66;100.00
10079;BME280;5078;42.544;22.966;2023-05-23T03:43:44;93718.81;;;11.08;100.00
10079;BME280;5078;42.544;22.966;2023-05-23T03:46:12;93721.03;;;11.49;100.00
10079;BME280;5078;42.544;22.966;2023-05-23T03:48:38;93723.63;;;11.94;100.00
10079;BME280;5078;42.544;22.966;2023-05-23T03:51:05;93727.56;;;12.19;100.00
10079;BME280;5078;42.544;22.966;2023-05-23T03:53:32;93725.97;;;12.68;100.00
10079;BME280;5078;42.544;22.966;2023-05-23T03:55:59;93721.09;;;13.00;100.00
10079;BME280;5078;42.544;22.966;2023-05-23T03:58:25;93733.59;;;12.99;100.00
10079;BME280;5078;42.544;22.966;2023-05-23T04:00:52;93737.38;;;13.11;100.00
10079;BME280;5078;42.544;22.966;2023-05-23T04:03:20;93733.41;;;13.01;100.00
10079;BME280;5078;42.544;22.966;2023-05-23T04:05:47;93734.69;;;13.33;100.00
10079;BME280;5078;42.544;22.966;2023-05-23T04:08:14;93739.47;;;13.23;100.00
10079;BME280;5078;42.544;22.966;2023-05-23T04:10:41;93625.94;;;12.17;100.00
10079;BME280;5078;42.544;22.966;2023-05-23T04:13:07;93738.41;;;12.39;100.00
10079;BME280;5078;42.544;22.966;2023-05-23T04:15:35;93743.34;;;12.64;100.00
10079;BME280;5078;42.544;22.966;2023-05-23T04:18:02;93743.50;;;13.33;100.00
10079;BME280;5078;42.544;22.966;2023-05-23T04:20:30;93734.81;;;13.53;100.00
10079;BME280;5078;42.544;22.966;2023-05-23T04:22:57;93740.69;;;13.90;100.00
10079;BME280;5078;42.544;22.966;2023-05-23T04:25:23;93736.75;;;14.40;100.00
10079;BME280;5078;42.544;22.966;2023-05-23T04:27:50;93743.78;;;13.93;100.00
10079;BME280;5078;42.544;22.966;2023-05-23T04:30:18;93725.06;;;13.80;100.00
10079;BME280;5078;42.544;22.966;2023-05-23T04:32:45;93737.97;;;14.31;100.00
10079;BME280;5078;42.544;22.966;2023-05-23T04:35:12;93744.97;;;14.45;100.00
10079;BME280;5078;42.544;22.966;2023-05-23T04:37:40;93747.91;;;14.97;100.00
10079;BME280;5078;42.544;22.966;2023-05-23T04:40:08;93739.28;;;14.55;100.00
10079;BME280;5078;42.544;22.966;2023-05-23T04:42:34;93740.75;;;15.18;100.00
10079;BME280;5078;42.544;22.966;2023-05-23T04:45:01;93728.13;;;15.58;100.00
10079;BME280;5078;42.544;22.966;2023-05-23T04:47:28;93746.00;;;15.78;100.00
10079;BME280;5078;42.544;22.966;2023-05-23T04:49:59;93735.78;;;16.13;100.00
10079;BME280;5078;42.544;22.966;2023-05-23T04:52:26;93749.94;;;16.20;100.00
10079;BME280;5078;42.544;22.966;2023-05-23T04:54:55;93750.03;;;16.00;100.00
10079;BME280;5078;42.544;22.966;2023-05-23T04:57:22;93752.59;;;16.97;99.46
10079;BME280;5078;42.544;22.966;2023-05-23T04:59:48;93748.03;;;16.27;100.00
10079;BME280;5078;42.544;22.966;2023-05-23T05:02:15;93749.25;;;17.01;98.27
10079;BME280;5078;42.544;22.966;2023-05-23T05:04:42;93736.44;;;17.10;96.23
10079;BME280;5078;42.544;22.966;2023-05-23T05:07:08;93750.28;;;17.51;94.42
10079;BME280;5078;42.544;22.966;2023-05-23T05:09:35;93741.56;;;18.17;85.81
10079;BME280;5078;42.544;22.966;2023-05-23T05:12:03;93744.47;;;17.72;86.65
10079;BME280;5078;42.544;22.966;2023-05-23T05:14:30;93743.91;;;18.07;86.20
10079;BME280;5078;42.544;22.966;2023-05-23T05:16:57;93734.50;;;17.79;88.85
10079;BME280;5078;42.544;22.966;2023-05-23T05:19:23;93726.63;;;17.66;93.33
10079;BME280;5078;42.544;22.966;2023-05-23T05:21:50;93728.63;;;18.26;87.53
10079;BME280;5078;42.544;22.966;2023-05-23T05:24:17;93734.78;;;19.05;81.00
10079;BME280;5078;42.544;22.966;2023-05-23T05:26:45;93739.66;;;18.66;84.21
10079;BME280;5078;42.544;22.966;2023-05-23T05:29:14;93736.63;;;18.63;84.91
10079;BME280;5078;42.544;22.966;2023-05-23T05:31:40;93737.72;;;19.39;79.78
10079;BME280;5078;42.544;22.966;2023-05-23T05:34:07;93740.75;;;19.07;77.81
10079;BME280;5078;42.544;22.966;2023-05-23T05:36:34;93735.00;;;19.04;78.13
10079;BME280;5078;42.544;22.966;2023-05-23T05:39:01;93734.47;;;19.37;77.25
10079;BME280;5078;42.544;22.966;2023-05-23T05:41:27;93734.94;;;19.81;72.92
10079;BME280;5078;42.544;22.966;2023-05-23T05:43:54;93740.16;;;20.11;72.46
10079;BME280;5078;42.544;22.966;2023-05-23T05:46:22;93740.00;;;20.70;69.27
10079;BME280;5078;42.544;22.966;2023-05-23T05:48:49;93737.59;;;20.85;66.89
10079;BME280;5078;42.544;22.966;2023-05-23T05:51:16;93727.22;;;21.11;62.00
10079;BME280;5078;42.544;22.966;2023-05-23T05:53:42;93731.31;;;20.39;62.89
10079;BME280;5078;42.544;22.966;2023-05-23T05:56:09;93722.44;;;20.27;65.25
10079;BME280;5078;42.544;22.966;2023-05-23T05:58:36;93733.63;;;19.25;70.52
10079;BME280;5078;42.544;22.966;2023-05-23T06:01:02;93708.25;;;19.21;72.46
10079;BME280;5078;42.544;22.966;2023-05-23T06:03:31;93735.28;;;18.84;76.29
10079;BME280;5078;42.544;22.966;2023-05-23T06:05:58;93728.94;;;19.32;71.66
10079;BME280;5078;42.544;22.966;2023-05-23T06:08:25;93725.56;;;19.48;74.21
10079;BME280;5078;42.544;22.966;2023-05-23T06:10:51;93726.06;;;19.69;70.91
10079;BME280;5078;42.544;22.966;2023-05-23T06:13:18;93728.50;;;19.58;71.57
10079;BME280;5078;42.544;22.966;2023-05-23T06:15:45;93724.38;;;19.91;69.55
10079;BME280;5078;42.544;22.966;2023-05-23T06:18:12;93722.75;;;19.67;70.49
10079;BME280;5078;42.544;22.966;2023-05-23T06:20:40;93726.06;;;19.69;74.72
10079;BME280;5078;42.544;22.966;2023-05-23T06:23:06;93722.56;;;20.61;68.50
10079;BME280;5078;42.544;22.966;2023-05-23T06:25:33;93725.84;;;21.25;64.13
10079;BME280;5078;42.544;22.966;2023-05-23T06:28:00;93728.06;;;20.66;64.51
10079;BME280;5078;42.544;22.966;2023-05-23T06:30:26;93724.13;;;21.87;62.40
10079;BME280;5078;42.544;22.966;2023-05-23T06:32:54;93724.34;;;22.46;58.54
10079;BME280;5078;42.544;22.966;2023-05-23T06:35:20;93718.84;;;22.63;57.18
10079;BME280;5078;42.544;22.966;2023-05-23T06:37:48;93715.03;;;21.76;60.26
10079;BME280;5078;42.544;22.966;2023-05-23T06:40:15;93716.50;;;21.45;62.66
10079;BME280;5078;42.544;22.966;2023-05-23T06:42:42;93709.81;;;22.08;60.89
10079;BME280;5078;42.544;22.966;2023-05-23T06:45:09;93709.81;;;22.08;62.45
10079;BME280;5078;42.544;22.966;2023-05-23T06:47:36;93702.69;;;22.68;62.24
10079;BME280;5078;42.544;22.966;2023-05-23T06:50:03;93707.91;;;22.75;60.81
10079;BME280;5078;42.544;22.966;2023-05-23T06:52:30;93705.41;;;22.95;57.75
10079;BME280;5078;42.544;22.966;2023-05-23T06:54:58;93698.66;;;23.62;55.88
10079;BME280;5078;42.544;22.966;2023-05-23T06:57:25;93684.06;;;24.11;53.33
10079;BME280;5078;42.544;22.966;2023-05-23T06:59:51;93689.75;;;24.09;52.13
10079;BME280;5078;42.544;22.966;2023-05-23T07:02:18;93685.69;;;23.64;52.54
10079;BME280;5078;42.544;22.966;2023-05-23T07:04:45;93687.75;;;23.84;51.50
10079;BME280;5078;42.544;22.966;2023-05-23T07:07:12;93684.38;;;23.72;53.08
10079;BME280;5078;42.544;22.966;2023-05-23T07:09:38;93681.00;;;23.50;53.81
10079;BME280;5078;42.544;22.966;2023-05-23T07:12:07;93686.47;;;22.41;56.29
10079;BME280;5078;42.544;22.966;2023-05-23T07:14:33;93687.31;;;22.20;59.99
10079;BME280;5078;42.544;22.966;2023-05-23T07:17:02;93677.06;;;21.61;61.79
10079;BME280;5078;42.544;22.966;2023-05-23T07:19:30;93655.84;;;20.97;63.81
10079;BME280;5078;42.544;22.966;2023-05-23T07:21:56;93675.75;;;20.62;68.57
10079;BME280;5078;42.544;22.966;2023-05-23T07:24:23;93677.94;;;20.65;72.26
10079;BME280;5078;42.544;22.966;2023-05-23T07:26:50;93682.44;;;20.59;73.31
10079;BME280;5078;42.544;22.966;2023-05-23T07:29:18;93674.28;;;20.88;73.33
10079;BME280;5078;42.544;22.966;2023-05-23T07:31:44;93671.13;;;21.08;70.38
10079;BME280;5078;42.544;22.966;2023-05-23T07:34:11;93667.25;;;21.04;69.43
10079;BME280;5078;42.544;22.966;2023-05-23T07:36:38;93674.44;;;21.66;69.12
10079;BME280;5078;42.544;22.966;2023-05-23T07:39:05;93672.50;;;21.10;63.34
10079;BME280;5078;42.544;22.966;2023-05-23T07:41:32;93676.84;;;21.45;61.37
10079;BME280;5078;42.544;22.966;2023-05-23T07:43:59;93678.22;;;21.48;58.01
10079;BME280;5078;42.544;22.966;2023-05-23T07:46:28;93673.28;;;22.23;56.31
10079;BME280;5078;42.544;22.966;2023-05-23T07:48:54;93668.50;;;22.79;52.79
10079;BME280;5078;42.544;22.966;2023-05-23T07:51:21;93669.69;;;23.20;50.87
10079;BME280;5078;42.544;22.966;2023-05-23T07:53:48;93672.13;;;23.22;51.56
10079;BME280;5078;42.544;22.966;2023-05-23T07:56:15;93672.72;;;22.97;49.26
10079;BME280;5078;42.544;22.966;2023-05-23T07:58:41;93670.47;;;23.21;50.48
10079;BME280;5078;42.544;22.966;2023-05-23T08:01:08;93665.69;;;24.23;48.65
10079;BME280;5078;42.544;22.966;2023-05-23T08:03:36;93661.25;;;23.92;47.01
10079;BME280;5078;42.544;22.966;2023-05-23T08:06:03;93663.63;;;23.45;49.99
10079;BME280;5078;42.544;22.966;2023-05-23T08:08:31;93671.81;;;23.18;46.79
10079;BME280;5078;42.544;22.966;2023-05-23T08:10:58;93659.66;;;22.34;49.16
10079;BME280;5078;42.544;22.966;2023-05-23T08:13:25;93661.28;;;21.69;48.00
10079;BME280;5078;42.544;22.966;2023-05-23T08:15:51;93670.56;;;21.40;49.63
10079;BME280;5078;42.544;22.966;2023-05-23T08:18:18;93675.16;;;21.39;50.34
10079;BME280;5078;42.544;22.966;2023-05-23T08:20:46;93668.25;;;21.48;48.82
10079;BME280;5078;42.544;22.966;2023-05-23T08:23:13;93669.56;;;21.46;47.58
10079;BME280;5078;42.544;22.966;2023-05-23T08:25:40;93664.91;;;20.90;49.10
10079;BME280;5078;42.544;22.966;2023-05-23T08:28:06;93669.22;;;21.25;48.38
10079;BME280;5078;42.544;22.966;2023-05-23T08:30:33;93661.28;;;21.19;47.20
10079;BME280;5078;42.544;22.966;2023-05-23T08:33:01;93666.38;;;21.32;48.71
10079;BME280;5078;42.544;22.966;2023-05-23T08:35:29;93666.63;;;21.47;48.86
10079;BME280;5078;42.544;22.966;2023-05-23T08:38:01;93660.06;;;21.60;50.43
10079;BME280;5078;42.544;22.966;2023-05-23T08:40:29;93665.59;;;21.37;43.89
10079;BME280;5078;42.544;22.966;2023-05-23T08:42:56;93662.59;;;21.67;46.02
10079;BME280;5078;42.544;22.966;2023-05-23T08:45:23;93660.19;;;21.70;46.81
10079;BME280;5078;42.544;22.966;2023-05-23T08:47:51;93655.72;;;21.81;46.51
10079;BME280;5078;42.544;22.966;2023-05-23T08:50:17;93659.75;;;21.79;48.62
10079;BME280;5078;42.544;22.966;2023-05-23T08:52:49;93666.91;;;21.68;46.78
10079;BME280;5078;42.544;22.966;2023-05-23T08:55:19;93666.09;;;21.17;41.91
10079;BME280;5078;42.544;22.966;2023-05-23T08:57:46;93658.44;;;21.81;42.24
10079;BME280;5078;42.544;22.966;2023-05-23T09:00:14;93650.34;;;21.59;43.06
10079;BME280;5078;42.544;22.966;2023-05-23T09:02:42;93654.06;;;21.97;45.31
10079;BME280;5078;42.544;22.966;2023-05-23T09:05:09;93658.75;;;21.85;41.68
10079;BME280;5078;42.544;22.966;2023-05-23T09:07:36;93655.63;;;22.37;41.56
10079;BME280;5078;42.544;22.966;2023-05-23T09:10:04;93661.22;;;22.30;40.94
10079;BME280;5078;42.544;22.966;2023-05-23T09:12:33;93652.09;;;22.64;39.25
10079;BME280;5078;42.544;22.966;2023-05-23T09:15:01;93649.44;;;22.96;38.90
10079;BME280;5078;42.544;22.966;2023-05-23T09:17:28;93644.03;;;23.28;38.91
10079;BME280;5078;42.544;22.966;2023-05-23T09:19:56;93652.66;;;23.25;36.23
10079;BME280;5078;42.544;22.966;2023-05-23T09:22:24;93645.66;;;23.24;36.88
10079;BME280;5078;42.544;22.966;2023-05-23T09:24:52;93650.03;;;23.35;36.63
10079;BME280;5078;42.544;22.966;2023-05-23T09:27:18;93638.31;;;23.19;38.18
10079;BME280;5078;42.544;22.966;2023-05-23T09:29:48;93637.00;;;23.27;36.48
10079;BME280;5078;42.544;22.966;2023-05-23T09:32:16;93646.22;;;23.31;36.18
10079;BME280;5078;42.544;22.966;2023-05-23T09:34:54;93641.50;;;22.84;38.65
10079;BME280;5078;42.544;22.966;2023-05-23T09:37:21;93640.06;;;23.41;39.61
10079;BME280;5078;42.544;22.966;2023-05-23T09:39:48;93650.84;;;22.98;34.91
10079;BME280;5078;42.544;22.966;2023-05-23T09:42:19;93634.88;;;23.34;34.22
10079;BME280;5078;42.544;22.966;2023-05-23T09:44:49;93637.91;;;23.06;36.34
10079;BME280;5078;42.544;22.966;2023-05-23T09:47:15;93624.59;;;23.36;38.62
10079;BME280;5078;42.544;22.966;2023-05-23T09:49:42;93634.41;;;23.05;37.17
10079;BME280;5078;42.544;22.966;2023-05-23T09:52:09;93632.66;;;23.26;37.36
10079;BME280;5078;42.544;22.966;2023-05-23T09:54:36;93626.91;;;23.60;36.54
10079;BME280;5078;42.544;22.966;2023-05-23T09:57:08;93614.13;;;23.93;37.55
10079;BME280;5078;42.544;22.966;2023-05-23T09:59:38;93636.41;;;24.15;36.43
10079;BME280;5078;42.544;22.966;2023-05-23T10:02:10;93627.41;;;23.99;37.36
10079;BME280;5078;42.544;22.966;2023-05-23T10:04:38;93622.34;;;24.23;37.79
10079;BME280;5078;42.544;22.966;2023-05-23T10:07:11;93632.22;;;24.50;36.61
10079;BME280;5078;42.544;22.966;2023-05-23T10:09:41;93613.88;;;23.99;37.43
10079;BME280;5078;42.544;22.966;2023-05-23T10:15:14;93625.31;;;24.11;37.51
10079;BME280;5078;42.544;22.966;2023-05-23T10:17:59;93625.06;;;24.28;37.30
10079;BME280;5078;42.544;22.966;2023-05-23T10:20:29;93622.84;;;24.05;33.84
10079;BME280;5078;42.544;22.966;2023-05-23T10:22:58;93621.25;;;24.19;35.03
10079;BME280;5078;42.544;22.966;2023-05-23T10:25:26;93610.66;;;24.13;36.45
10079;BME280;5078;42.544;22.966;2023-05-23T10:27:54;93613.72;;;24.31;34.91
10079;BME280;5078;42.544;22.966;2023-05-23T10:30:24;93604.69;;;23.53;36.54
10079;BME280;5078;42.544;22.966;2023-05-23T10:32:53;93613.94;;;22.28;38.99
10079;BME280;5078;42.544;22.966;2023-05-23T10:35:27;93620.63;;;22.47;39.44
10079;BME280;5078;42.544;22.966;2023-05-23T10:38:01;93618.19;;;22.24;40.57
10079;BME280;5078;42.544;22.966;2023-05-23T10:40:41;93612.84;;;22.29;39.75
10079;BME280;5078;42.544;22.966;2023-05-23T10:43:17;93611.84;;;22.35;39.35
10079;BME280;5078;42.544;22.966;2023-05-23T10:45:46;93597.09;;;22.75;37.91
10079;BME280;5078;42.544;22.966;2023-05-23T10:48:31;93607.16;;;21.81;40.38
10079;BME280;5078;42.544;22.966;2023-05-23T10:51:03;93619.78;;;21.75;40.50
10079;BME280;5078;42.544;22.966;2023-05-23T10:53:31;93601.50;;;22.05;39.07
10079;BME280;5078;42.544;22.966;2023-05-23T10:55:58;93606.44;;;22.13;38.27
10079;BME280;5078;42.544;22.966;2023-05-23T10:58:28;93603.22;;;22.16;38.22
10079;BME280;5078;42.544;22.966;2023-05-23T11:00:59;93580.03;;;22.42;38.35
10079;BME280;5078;42.544;22.966;2023-05-23T11:03:34;93599.34;;;22.88;38.62
10079;BME280;5078;42.544;22.966;2023-05-23T11:06:03;93613.81;;;22.72;39.06
10079;BME280;5078;42.544;22.966;2023-05-23T11:08:37;93605.19;;;22.75;38.71
10079;BME280;5078;42.544;22.966;2023-05-23T11:11:06;93608.47;;;22.77;39.04
10079;BME280;5078;42.544;22.966;2023-05-23T11:13:58;93610.28;;;22.98;39.13
10079;BME280;5078;42.544;22.966;2023-05-23T11:16:28;93621.81;;;22.94;39.58
10079;BME280;5078;42.544;22.966;2023-05-23T11:19:22;93609.47;;;22.71;39.12
10079;BME280;5078;42.544;22.966;2023-05-23T11:21:53;93591.56;;;22.92;38.86
10079;BME280;5078;42.544;22.966;2023-05-23T11:24:20;93602.53;;;22.80;38.65
10079;BME280;5078;42.544;22.966;2023-05-23T11:26:51;93598.91;;;22.64;38.15
10079;BME280;5078;42.544;22.966;2023-05-23T11:29:19;93604.88;;;22.39;37.93
10079;BME280;5078;42.544;22.966;2023-05-23T11:31:46;93606.44;;;22.35;39.23
10079;BME280;5078;42.544;22.966;2023-05-23T11:34:13;93592.19;;;22.72;38.88
10079;BME280;5078;42.544;22.966;2023-05-23T11:36:41;93583.41;;;22.54;38.07
10079;BME280;5078;42.544;22.966;2023-05-23T11:39:08;93592.66;;;22.64;38.77
10079;BME280;5078;42.544;22.966;2023-05-23T11:41:37;93590.75;;;22.32;39.14
10079;BME280;5078;42.544;22.966;2023-05-23T11:44:10;93602.38;;;22.10;39.52
10079;BME280;5078;42.544;22.966;2023-05-23T11:46:38;93588.13;;;22.15;39.49
10079;BME280;5078;42.544;22.966;2023-05-23T11:49:09;93571.56;;;22.33;38.15
10079;BME280;5078;42.544;22.966;2023-05-23T11:51:37;93574.53;;;22.59;38.11
10079;BME280;5078;42.544;22.966;2023-05-23T11:54:05;93566.75;;;23.00;38.74
10079;BME280;5078;42.544;22.966;2023-05-23T11:56:38;93572.41;;;22.98;37.77
10079;BME280;5078;42.544;22.966;2023-05-23T11:59:05;93570.00;;;22.70;38.48
10079;BME280;5078;42.544;22.966;2023-05-23T12:01:32;93572.84;;;22.53;37.35
10079;BME280;5078;42.544;22.966;2023-05-23T12:03:58;93569.38;;;22.30;36.98
10079;BME280;5078;42.544;22.966;2023-05-23T12:06:25;93572.13;;;22.35;37.22
10079;BME280;5078;42.544;22.966;2023-05-23T12:08:52;93566.72;;;22.63;37.10
10079;BME280;5078;42.544;22.966;2023-05-23T12:11:20;93565.66;;;22.36;37.39
10079;BME280;5078;42.544;22.966;2023-05-23T12:13:51;93574.38;;;22.44;37.88
10079;BME280;5078;42.544;22.966;2023-05-23T12:16:18;93559.75;;;22.72;38.44
10079;BME280;5078;42.544;22.966;2023-05-23T12:18:46;93561.78;;;22.87;37.96
10079;BME280;5078;42.544;22.966;2023-05-23T12:21:13;93553.41;;;22.93;36.65
10079;BME280;5078;42.544;22.966;2023-05-23T12:23:40;93562.03;;;22.85;36.76
10079;BME280;5078;42.544;22.966;2023-05-23T12:26:07;93550.44;;;22.57;37.64
10079;BME280;5078;42.544;22.966;2023-05-23T12:28:37;93550.41;;;22.52;37.78
10079;BME280;5078;42.544;22.966;2023-05-23T12:31:09;93548.53;;;22.26;37.82
10079;BME280;5078;42.544;22.966;2023-05-23T12:33:37;93541.06;;;22.65;38.20
10079;BME280;5078;42.544;22.966;2023-05-23T12:36:05;93539.50;;;22.74;37.10
10079;BME280;5078;42.544;22.966;2023-05-23T12:38:32;93537.75;;;22.95;38.46
10079;BME280;5078;42.544;22.966;2023-05-23T12:41:09;93536.75;;;22.64;37.59
10079;BME280;5078;42.544;22.966;2023-05-23T12:43:48;93531.09;;;22.71;36.44
10079;BME280;5078;42.544;22.966;2023-05-23T12:46:15;93541.56;;;22.62;37.09
10079;BME280;5078;42.544;22.966;2023-05-23T12:48:42;93529.72;;;22.68;36.70
10079;BME280;5078;42.544;22.966;2023-05-23T12:51:09;93517.22;;;22.94;36.26
10079;BME280;5078;42.544;22.966;2023-05-23T12:53:36;93522.72;;;22.35;36.33
10079;BME280;5078;42.544;22.966;2023-05-23T12:56:03;93521.53;;;22.26;37.30
10079;BME280;5078;42.544;22.966;2023-05-23T12:58:30;93516.75;;;22.33;36.47
10079;BME280;5078;42.544;22.966;2023-05-23T13:01:00;93515.81;;;22.49;37.32
10079;BME280;5078;42.544;22.966;2023-05-23T13:03:27;93511.19;;;22.17;37.63